sensor_id;sensor_type;location;lat;lon;timestamp;P1;durP1;ratioP1;P2;durP2;ratioP2
40945;SDS011;55635;50.264;11.918;2023-03-01T00:00:38;43.35;;;18.35;;
40945;SDS011;55635;50.264;11.918;2023-03-01T00:03:20;33.60;;;16.40;;
40945;SDS011;55635;50.264;11.918;2023-03-01T00:06:02;31.55;;;17.08;;
40945;SDS011;55635;50.264;11.918;2023-03-01T00:08:43;40.20;;;18.67;;
40945;SDS011;55635;50.264;11.918;2023-03-01T00:11:26;39.38;;;17.30;;
40945;SDS011;55635;50.264;11.918;2023-03-01T00:14:10;31.13;;;17.00;;
40945;SDS011;55635;50.264;11.918;2023-03-01T00:16:51;41.25;;;18.60;;
40945;SDS011;55635;50.264;11.918;2023-03-01T00:19:33;43.13;;;17.65;;
40945;SDS011;55635;50.264;11.918;2023-03-01T00:22:14;32.55;;;17.10;;
40945;SDS011;55635;50.264;11.918;2023-03-01T00:24:55;36.08;;;18.35;;
40945;SDS011;55635;50.264;11.918;2023-03-01T00:27:36;42.28;;;17.75;;
40945;SDS011;55635;50.264;11.918;2023-03-01T00:30:17;38.83;;;19.27;;
40945;SDS011;55635;50.264;11.918;2023-03-01T00:32:59;37.75;;;18.00;;
40945;SDS011;55635;50.264;11.918;2023-03-01T00:35:39;39.33;;;17.45;;
40945;SDS011;55635;50.264;11.918;2023-03-01T00:38:20;39.83;;;18.02;;
40945;SDS011;55635;50.264;11.918;2023-03-01T00:41:05;38.95;;;18.15;;
40945;SDS011;55635;50.264;11.918;2023-03-01T00:43:48;37.15;;;18.15;;
40945;SDS011;55635;50.264;11.918;2023-03-01T00:46:30;37.15;;;17.52;;
40945;SDS011;55635;50.264;11.918;2023-03-01T00:49:11;36.28;;;17.75;;
40945;SDS011;55635;50.264;11.918;2023-03-01T00:51:53;38.92;;;19.85;;
40945;SDS011;55635;50.264;11.918;2023-03-01T00:54:34;37.75;;;17.90;;
40945;SDS011;55635;50.264;11.918;2023-03-01T00:57:15;44.05;;;19.45;;
40945;SDS011;55635;50.264;11.918;2023-03-01T00:59:56;39.50;;;19.05;;
40945;SDS011;55635;50.264;11.918;2023-03-01T01:02:37;40.00;;;18.65;;
40945;SDS011;55635;50.264;11.918;2023-03-01T01:05:18;62.03;;;26.05;;
40945;SDS011;55635;50.264;11.918;2023-03-01T01:08:00;43.35;;;19.35;;
40945;SDS011;55635;50.264;11.918;2023-03-01T01:10:43;32.70;;;18.30;;
40945;SDS011;55635;50.264;11.918;2023-03-01T01:13:25;36.83;;;19.25;;
40945;SDS011;55635;50.264;11.918;2023-03-01T01:16:06;36.38;;;18.65;;
40945;SDS011;55635;50.264;11.918;2023-03-01T01:18:48;39.58;;;18.83;;
40945;SDS011;55635;50.264;11.918;2023-03-01T01:21:29;36.67;;;18.60;;
40945;SDS011;55635;50.264;11.918;2023-03-01T01:24:11;38.83;;;17.83;;
40945;SDS011;55635;50.264;11.918;2023-03-01T01:26:52;41.08;;;18.88;;
40945;SDS011;55635;50.264;11.918;2023-03-01T01:29:33;41.30;;;19.17;;
40945;SDS011;55635;50.264;11.918;2023-03-01T01:32:14;36.30;;;18.05;;
40945;SDS011;55635;50.264;11.918;2023-03-01T01:34:55;37.17;;;18.90;;
40945;SDS011;55635;50.264;11.918;2023-03-01T01:37:37;41.72;;;19.85;;
40945;SDS011;55635;50.264;11.918;2023-03-01T01:40:18;45.65;;;19.75;;
40945;SDS011;55635;50.264;11.918;2023-03-01T01:42:59;42.45;;;18.83;;
40945;SDS011;55635;50.264;11.918;2023-03-01T01:45:40;38.35;;;18.70;;
40945;SDS011;55635;50.264;11.918;2023-03-01T01:48:22;43.17;;;20.05;;
40945;SDS011;55635;50.264;11.918;2023-03-01T01:51:22;42.58;;;20.42;;
40945;SDS011;55635;50.264;11.918;2023-03-01T01:54:22;38.60;;;18.83;;
40945;SDS011;55635;50.264;11.918;2023-03-01T01:57:23;41.55;;;18.30;;
40945;SDS011;55635;50.264;11.918;2023-03-01T02:00:14;41.50;;;19.95;;
40945;SDS011;55635;50.264;11.918;2023-03-01T02:02:59;37.88;;;19.08;;
40945;SDS011;55635;50.264;11.918;2023-03-01T02:06:19;38.30;;;18.20;;
40945;SDS011;55635;50.264;11.918;2023-03-01T02:09:20;42.65;;;19.50;;
40945;SDS011;55635;50.264;11.918;2023-03-01T02:12:03;41.92;;;20.02;;
40945;SDS011;55635;50.264;11.918;2023-03-01T02:14:45;42.20;;;20.27;;
40945;SDS011;55635;50.264;11.918;2023-03-01T02:17:26;42.38;;;20.25;;
40945;SDS011;55635;50.264;11.918;2023-03-01T02:23:36;44.67;;;20.48;;
40945;SDS011;55635;50.264;11.918;2023-03-01T02:26:23;41.80;;;19.80;;
40945;SDS011;55635;50.264;11.918;2023-03-01T02:29:26;48.20;;;20.57;;
40945;SDS011;55635;50.264;11.918;2023-03-01T02:32:08;46.00;;;20.42;;
40945;SDS011;55635;50.264;11.918;2023-03-01T02:34:54;48.88;;;19.60;;
40945;SDS011;55635;50.264;11.918;2023-03-01T02:37:36;47.70;;;21.33;;
40945;SDS011;55635;50.264;11.918;2023-03-01T02:40:18;39.67;;;19.35;;
40945;SDS011;55635;50.264;11.918;2023-03-01T02:43:01;42.85;;;20.20;;
40945;SDS011;55635;50.264;11.918;2023-03-01T02:45:53;42.28;;;19.92;;
40945;SDS011;55635;50.264;11.918;2023-03-01T02:48:39;44.38;;;20.60;;
40945;SDS011;55635;50.264;11.918;2023-03-01T02:57:17;39.20;;;18.55;;
40945;SDS011;55635;50.264;11.918;2023-03-01T03:00:02;42.58;;;20.13;;
40945;SDS011;55635;50.264;11.918;2023-03-01T03:02:51;37.30;;;19.65;;
40945;SDS011;55635;50.264;11.918;2023-03-01T03:05:37;38.42;;;18.55;;
40945;SDS011;55635;50.264;11.918;2023-03-01T03:08:18;45.58;;;20.23;;
40945;SDS011;55635;50.264;11.918;2023-03-01T03:11:04;40.22;;;18.92;;
40945;SDS011;55635;50.264;11.918;2023-03-01T03:13:45;45.78;;;20.35;;
40945;SDS011;55635;50.264;11.918;2023-03-01T03:16:29;47.17;;;20.27;;
40945;SDS011;55635;50.264;11.918;2023-03-01T03:19:10;40.83;;;18.80;;
40945;SDS011;55635;50.264;11.918;2023-03-01T03:21:51;37.65;;;19.88;;
40945;SDS011;55635;50.264;11.918;2023-03-01T03:24:33;43.92;;;20.30;;
40945;SDS011;55635;50.264;11.918;2023-03-01T03:27:18;40.25;;;20.38;;
40945;SDS011;55635;50.264;11.918;2023-03-01T03:29:59;47.92;;;21.58;;
40945;SDS011;55635;50.264;11.918;2023-03-01T03:32:40;43.08;;;20.80;;
40945;SDS011;55635;50.264;11.918;2023-03-01T03:35:33;37.92;;;19.95;;
40945;SDS011;55635;50.264;11.918;2023-03-01T03:38:28;43.42;;;20.27;;
40945;SDS011;55635;50.264;11.918;2023-03-01T03:41:09;44.90;;;20.85;;
40945;SDS011;55635;50.264;11.918;2023-03-01T03:43:50;41.65;;;20.42;;
40945;SDS011;55635;50.264;11.918;2023-03-01T03:46:31;49.58;;;21.38;;
40945;SDS011;55635;50.264;11.918;2023-03-01T03:49:12;42.72;;;21.63;;
40945;SDS011;55635;50.264;11.918;2023-03-01T03:51:53;43.95;;;20.00;;
40945;SDS011;55635;50.264;11.918;2023-03-01T03:54:34;40.88;;;19.00;;
40945;SDS011;55635;50.264;11.918;2023-03-01T03:57:15;42.95;;;21.20;;
40945;SDS011;55635;50.264;11.918;2023-03-01T03:59:57;52.13;;;23.17;;
40945;SDS011;55635;50.264;11.918;2023-03-01T04:02:41;45.50;;;21.52;;
40945;SDS011;55635;50.264;11.918;2023-03-01T04:05:23;48.35;;;21.42;;
40945;SDS011;55635;50.264;11.918;2023-03-01T04:08:04;42.88;;;21.45;;
40945;SDS011;55635;50.264;11.918;2023-03-01T04:10:48;44.88;;;22.10;;
40945;SDS011;55635;50.264;11.918;2023-03-01T04:13:31;43.63;;;20.98;;
40945;SDS011;55635;50.264;11.918;2023-03-01T04:16:12;42.20;;;20.10;;
40945;SDS011;55635;50.264;11.918;2023-03-01T04:18:54;40.38;;;20.67;;
40945;SDS011;55635;50.264;11.918;2023-03-01T04:21:35;42.63;;;20.00;;
40945;SDS011;55635;50.264;11.918;2023-03-01T04:24:16;39.47;;;18.45;;
40945;SDS011;55635;50.264;11.918;2023-03-01T04:26:57;41.47;;;18.88;;
40945;SDS011;55635;50.264;11.918;2023-03-01T04:29:38;35.17;;;17.48;;
40945;SDS011;55635;50.264;11.918;2023-03-01T04:32:19;43.88;;;20.73;;
40945;SDS011;55635;50.264;11.918;2023-03-01T04:35:00;44.63;;;20.67;;
40945;SDS011;55635;50.264;11.918;2023-03-01T04:37:42;42.60;;;20.55;;
40945;SDS011;55635;50.264;11.918;2023-03-01T04:40:25;45.72;;;21.58;;
40945;SDS011;55635;50.264;11.918;2023-03-01T04:43:06;47.00;;;20.13;;
40945;SDS011;55635;50.264;11.918;2023-03-01T04:45:49;50.38;;;20.70;;
40945;SDS011;55635;50.264;11.918;2023-03-01T04:48:30;43.25;;;19.98;;
40945;SDS011;55635;50.264;11.918;2023-03-01T04:51:12;41.35;;;20.45;;
40945;SDS011;55635;50.264;11.918;2023-03-01T04:53:53;41.42;;;19.60;;
40945;SDS011;55635;50.264;11.918;2023-03-01T04:56:34;43.33;;;20.45;;
40945;SDS011;55635;50.264;11.918;2023-03-01T04:59:16;43.65;;;20.35;;
40945;SDS011;55635;50.264;11.918;2023-03-01T05:01:57;43.30;;;20.25;;
40945;SDS011;55635;50.264;11.918;2023-03-01T05:04:40;45.40;;;20.70;;
40945;SDS011;55635;50.264;11.918;2023-03-01T05:07:21;49.88;;;21.58;;
40945;SDS011;55635;50.264;11.918;2023-03-01T05:10:04;47.42;;;21.40;;
40945;SDS011;55635;50.264;11.918;2023-03-01T05:12:45;52.85;;;22.77;;
40945;SDS011;55635;50.264;11.918;2023-03-01T05:15:27;43.03;;;19.20;;
40945;SDS011;55635;50.264;11.918;2023-03-01T05:18:10;47.05;;;22.25;;
40945;SDS011;55635;50.264;11.918;2023-03-01T05:20:55;44.08;;;19.70;;
40945;SDS011;55635;50.264;11.918;2023-03-01T05:23:44;45.42;;;20.70;;
40945;SDS011;55635;50.264;11.918;2023-03-01T05:26:26;43.35;;;20.83;;
40945;SDS011;55635;50.264;11.918;2023-03-01T05:29:08;46.85;;;20.27;;
40945;SDS011;55635;50.264;11.918;2023-03-01T05:31:59;44.20;;;19.73;;
40945;SDS011;55635;50.264;11.918;2023-03-01T05:34:43;43.33;;;20.30;;
40945;SDS011;55635;50.264;11.918;2023-03-01T05:37:26;45.65;;;21.10;;
40945;SDS011;55635;50.264;11.918;2023-03-01T05:40:12;53.35;;;21.00;;
40945;SDS011;55635;50.264;11.918;2023-03-01T05:42:59;46.40;;;20.50;;
40945;SDS011;55635;50.264;11.918;2023-03-01T05:45:41;40.83;;;19.40;;
40945;SDS011;55635;50.264;11.918;2023-03-01T05:48:22;45.97;;;21.38;;
40945;SDS011;55635;50.264;11.918;2023-03-01T05:51:03;48.55;;;21.80;;
40945;SDS011;55635;50.264;11.918;2023-03-01T05:53:44;46.00;;;20.65;;
40945;SDS011;55635;50.264;11.918;2023-03-01T05:56:25;43.53;;;20.88;;
40945;SDS011;55635;50.264;11.918;2023-03-01T05:59:06;45.17;;;21.27;;
40945;SDS011;55635;50.264;11.918;2023-03-01T06:01:48;41.95;;;20.08;;
40945;SDS011;55635;50.264;11.918;2023-03-01T06:04:28;44.05;;;21.42;;
40945;SDS011;55635;50.264;11.918;2023-03-01T06:07:10;48.72;;;22.02;;
40945;SDS011;55635;50.264;11.918;2023-03-01T06:09:51;45.97;;;20.48;;
40945;SDS011;55635;50.264;11.918;2023-03-01T06:12:32;46.15;;;21.52;;
40945;SDS011;55635;50.264;11.918;2023-03-01T06:15:15;48.35;;;22.13;;
40945;SDS011;55635;50.264;11.918;2023-03-01T06:17:57;50.08;;;21.45;;
40945;SDS011;55635;50.264;11.918;2023-03-01T06:20:38;47.80;;;21.70;;
40945;SDS011;55635;50.264;11.918;2023-03-01T06:23:19;51.40;;;22.33;;
40945;SDS011;55635;50.264;11.918;2023-03-01T06:26:00;46.67;;;21.88;;
40945;SDS011;55635;50.264;11.918;2023-03-01T06:28:45;45.25;;;20.98;;
40945;SDS011;55635;50.264;11.918;2023-03-01T06:31:26;50.92;;;22.75;;
40945;SDS011;55635;50.264;11.918;2023-03-01T06:34:07;51.92;;;22.10;;
40945;SDS011;55635;50.264;11.918;2023-03-01T06:36:50;44.20;;;21.65;;
40945;SDS011;55635;50.264;11.918;2023-03-01T06:39:32;43.00;;;22.73;;
40945;SDS011;55635;50.264;11.918;2023-03-01T06:42:14;44.72;;;20.83;;
40945;SDS011;55635;50.264;11.918;2023-03-01T06:44:54;43.15;;;21.20;;
40945;SDS011;55635;50.264;11.918;2023-03-01T06:47:36;38.72;;;19.48;;
40945;SDS011;55635;50.264;11.918;2023-03-01T06:50:17;38.65;;;20.30;;
40945;SDS011;55635;50.264;11.918;2023-03-01T06:52:59;39.63;;;20.80;;
40945;SDS011;55635;50.264;11.918;2023-03-01T06:55:41;39.45;;;20.63;;
40945;SDS011;55635;50.264;11.918;2023-03-01T06:58:23;37.85;;;20.63;;
40945;SDS011;55635;50.264;11.918;2023-03-01T07:01:05;37.55;;;19.20;;
40945;SDS011;55635;50.264;11.918;2023-03-01T07:03:48;33.67;;;19.02;;
40945;SDS011;55635;50.264;11.918;2023-03-01T07:06:29;35.97;;;19.65;;
40945;SDS011;55635;50.264;11.918;2023-03-01T07:09:13;38.33;;;19.92;;
40945;SDS011;55635;50.264;11.918;2023-03-01T07:11:55;35.72;;;19.42;;
40945;SDS011;55635;50.264;11.918;2023-03-01T07:14:37;34.70;;;19.13;;
40945;SDS011;55635;50.264;11.918;2023-03-01T07:17:19;32.53;;;18.85;;
40945;SDS011;55635;50.264;11.918;2023-03-01T07:20:00;36.53;;;19.45;;
40945;SDS011;55635;50.264;11.918;2023-03-01T07:22:41;34.95;;;19.85;;
40945;SDS011;55635;50.264;11.918;2023-03-01T07:25:23;33.20;;;19.52;;
40945;SDS011;55635;50.264;11.918;2023-03-01T07:28:06;30.55;;;18.15;;
40945;SDS011;55635;50.264;11.918;2023-03-01T07:30:47;33.88;;;19.33;;
40945;SDS011;55635;50.264;11.918;2023-03-01T07:33:28;34.03;;;19.58;;
40945;SDS011;55635;50.264;11.918;2023-03-01T07:36:09;30.33;;;18.98;;
40945;SDS011;55635;50.264;11.918;2023-03-01T07:38:51;32.63;;;20.00;;
40945;SDS011;55635;50.264;11.918;2023-03-01T07:41:32;31.00;;;20.95;;
40945;SDS011;55635;50.264;11.918;2023-03-01T07:44:13;33.95;;;20.38;;
40945;SDS011;55635;50.264;11.918;2023-03-01T07:46:55;31.63;;;20.42;;
40945;SDS011;55635;50.264;11.918;2023-03-01T07:49:38;31.85;;;20.50;;
40945;SDS011;55635;50.264;11.918;2023-03-01T07:52:19;31.30;;;20.58;;
40945;SDS011;55635;50.264;11.918;2023-03-01T07:55:00;33.13;;;20.80;;
40945;SDS011;55635;50.264;11.918;2023-03-01T07:57:41;31.48;;;20.52;;
40945;SDS011;55635;50.264;11.918;2023-03-01T08:00:23;30.27;;;20.13;;
40945;SDS011;55635;50.264;11.918;2023-03-01T08:03:04;31.27;;;20.10;;
40945;SDS011;55635;50.264;11.918;2023-03-01T08:05:45;29.58;;;19.98;;
40945;SDS011;55635;50.264;11.918;2023-03-01T08:08:26;28.08;;;19.05;;
40945;SDS011;55635;50.264;11.918;2023-03-01T08:11:09;29.38;;;19.85;;
40945;SDS011;55635;50.264;11.918;2023-03-01T08:13:52;29.73;;;19.40;;
40945;SDS011;55635;50.264;11.918;2023-03-01T08:16:33;29.88;;;20.13;;
40945;SDS011;55635;50.264;11.918;2023-03-01T08:19:15;28.00;;;20.00;;
40945;SDS011;55635;50.264;11.918;2023-03-01T08:21:56;29.85;;;19.75;;
40945;SDS011;55635;50.264;11.918;2023-03-01T08:24:38;27.02;;;19.25;;
40945;SDS011;55635;50.264;11.918;2023-03-01T08:27:19;26.83;;;19.08;;
40945;SDS011;55635;50.264;11.918;2023-03-01T08:30:00;28.08;;;20.23;;
40945;SDS011;55635;50.264;11.918;2023-03-01T08:32:41;27.27;;;18.88;;
40945;SDS011;55635;50.264;11.918;2023-03-01T08:35:22;28.00;;;19.38;;
40945;SDS011;55635;50.264;11.918;2023-03-01T08:38:03;27.38;;;18.80;;
40945;SDS011;55635;50.264;11.918;2023-03-01T08:40:44;24.83;;;17.08;;
40945;SDS011;55635;50.264;11.918;2023-03-01T08:43:25;30.67;;;18.98;;
40945;SDS011;55635;50.264;11.918;2023-03-01T08:46:06;26.58;;;17.77;;
40945;SDS011;55635;50.264;11.918;2023-03-01T08:48:47;27.00;;;17.42;;
40945;SDS011;55635;50.264;11.918;2023-03-01T08:51:28;24.35;;;16.92;;
40945;SDS011;55635;50.264;11.918;2023-03-01T08:54:11;27.25;;;17.90;;
40945;SDS011;55635;50.264;11.918;2023-03-01T08:56:55;27.10;;;17.23;;
40945;SDS011;55635;50.264;11.918;2023-03-01T08:59:39;27.85;;;18.10;;
40945;SDS011;55635;50.264;11.918;2023-03-01T09:02:20;24.55;;;17.55;;
40945;SDS011;55635;50.264;11.918;2023-03-01T09:05:02;22.20;;;15.73;;
40945;SDS011;55635;50.264;11.918;2023-03-01T09:07:43;22.42;;;15.85;;
40945;SDS011;55635;50.264;11.918;2023-03-01T09:10:24;25.30;;;16.38;;
40945;SDS011;55635;50.264;11.918;2023-03-01T09:13:05;23.88;;;16.15;;
40945;SDS011;55635;50.264;11.918;2023-03-01T09:15:46;26.60;;;16.60;;
40945;SDS011;55635;50.264;11.918;2023-03-01T09:18:27;25.30;;;16.20;;
40945;SDS011;55635;50.264;11.918;2023-03-01T09:21:13;24.30;;;16.98;;
40945;SDS011;55635;50.264;11.918;2023-03-01T09:23:56;22.77;;;16.30;;
40945;SDS011;55635;50.264;11.918;2023-03-01T09:26:38;31.58;;;19.73;;
40945;SDS011;55635;50.264;11.918;2023-03-01T09:29:19;25.58;;;16.52;;
40945;SDS011;55635;50.264;11.918;2023-03-01T09:32:00;24.98;;;17.27;;
40945;SDS011;55635;50.264;11.918;2023-03-01T09:34:41;29.33;;;19.17;;
40945;SDS011;55635;50.264;11.918;2023-03-01T09:37:41;28.92;;;19.30;;
40945;SDS011;55635;50.264;11.918;2023-03-01T09:40:25;22.50;;;15.57;;
40945;SDS011;55635;50.264;11.918;2023-03-01T09:43:16;30.92;;;20.08;;
40945;SDS011;55635;50.264;11.918;2023-03-01T09:46:15;25.20;;;17.67;;
40945;SDS011;55635;50.264;11.918;2023-03-01T09:48:57;24.83;;;17.58;;
40945;SDS011;55635;50.264;11.918;2023-03-01T09:51:48;30.23;;;16.23;;
40945;SDS011;55635;50.264;11.918;2023-03-01T09:54:38;32.42;;;18.98;;
40945;SDS011;55635;50.264;11.918;2023-03-01T09:57:20;23.88;;;16.42;;
40945;SDS011;55635;50.264;11.918;2023-03-01T10:00:44;29.73;;;18.80;;
40945;SDS011;55635;50.264;11.918;2023-03-01T10:03:42;30.75;;;20.52;;
40945;SDS011;55635;50.264;11.918;2023-03-01T10:06:29;32.45;;;20.35;;
40945;SDS011;55635;50.264;11.918;2023-03-01T10:09:16;25.75;;;16.95;;
40945;SDS011;55635;50.264;11.918;2023-03-01T10:11:59;36.00;;;20.87;;
40945;SDS011;55635;50.264;11.918;2023-03-01T10:18:16;26.77;;;17.67;;
40945;SDS011;55635;50.264;11.918;2023-03-01T10:23:59;23.40;;;15.35;;
40945;SDS011;55635;50.264;11.918;2023-03-01T10:26:57;23.00;;;15.52;;
40945;SDS011;55635;50.264;11.918;2023-03-01T10:33:02;25.70;;;16.20;;
40945;SDS011;55635;50.264;11.918;2023-03-01T10:35:53;23.05;;;15.82;;
40945;SDS011;55635;50.264;11.918;2023-03-01T10:38:48;24.33;;;16.10;;
40945;SDS011;55635;50.264;11.918;2023-03-01T10:41:35;24.92;;;15.70;;
40945;SDS011;55635;50.264;11.918;2023-03-01T10:44:48;22.33;;;15.40;;
40945;SDS011;55635;50.264;11.918;2023-03-01T10:47:29;23.83;;;16.13;;
40945;SDS011;55635;50.264;11.918;2023-03-01T10:50:20;21.83;;;14.93;;
40945;SDS011;55635;50.264;11.918;2023-03-01T10:53:04;23.33;;;15.40;;
40945;SDS011;55635;50.264;11.918;2023-03-01T10:56:00;23.17;;;14.52;;
40945;SDS011;55635;50.264;11.918;2023-03-01T10:58:57;26.17;;;15.75;;
40945;SDS011;55635;50.264;11.918;2023-03-01T11:01:41;22.13;;;14.95;;
40945;SDS011;55635;50.264;11.918;2023-03-01T11:04:22;23.05;;;14.88;;
40945;SDS011;55635;50.264;11.918;2023-03-01T11:07:03;21.92;;;14.48;;
40945;SDS011;55635;50.264;11.918;2023-03-01T11:09:46;20.98;;;15.18;;
40945;SDS011;55635;50.264;11.918;2023-03-01T11:12:27;19.55;;;15.23;;
40945;SDS011;55635;50.264;11.918;2023-03-01T11:15:19;24.92;;;16.00;;
40945;SDS011;55635;50.264;11.918;2023-03-01T11:18:21;19.90;;;14.37;;
40945;SDS011;55635;50.264;11.918;2023-03-01T11:21:03;23.02;;;14.48;;
40945;SDS011;55635;50.264;11.918;2023-03-01T11:23:45;22.35;;;14.20;;
40945;SDS011;55635;50.264;11.918;2023-03-01T11:26:27;22.65;;;14.10;;
40945;SDS011;55635;50.264;11.918;2023-03-01T11:29:21;20.65;;;14.43;;
40945;SDS011;55635;50.264;11.918;2023-03-01T11:32:10;21.50;;;14.57;;
40945;SDS011;55635;50.264;11.918;2023-03-01T11:34:55;20.40;;;13.70;;
40945;SDS011;55635;50.264;11.918;2023-03-01T11:44:17;20.02;;;13.88;;
40945;SDS011;55635;50.264;11.918;2023-03-01T11:50:54;21.10;;;14.25;;
40945;SDS011;55635;50.264;11.918;2023-03-01T11:56:35;21.33;;;15.68;;
40945;SDS011;55635;50.264;11.918;2023-03-01T12:02:27;23.27;;;15.35;;
40945;SDS011;55635;50.264;11.918;2023-03-01T12:25:04;22.90;;;13.27;;
40945;SDS011;55635;50.264;11.918;2023-03-01T12:49:56;20.85;;;13.68;;
40945;SDS011;55635;50.264;11.918;2023-03-01T12:52:47;24.02;;;14.82;;
40945;SDS011;55635;50.264;11.918;2023-03-01T12:55:35;23.13;;;15.40;;
40945;SDS011;55635;50.264;11.918;2023-03-01T12:58:32;21.23;;;15.25;;
40945;SDS011;55635;50.264;11.918;2023-03-01T13:11:00;19.40;;;13.50;;
40945;SDS011;55635;50.264;11.918;2023-03-01T13:13:44;20.42;;;14.65;;
40945;SDS011;55635;50.264;11.918;2023-03-01T13:25:13;19.25;;;14.23;;
40945;SDS011;55635;50.264;11.918;2023-03-01T13:37:23;20.90;;;14.20;;
40945;SDS011;55635;50.264;11.918;2023-03-01T13:42:58;24.58;;;14.63;;
40945;SDS011;55635;50.264;11.918;2023-03-01T13:46:21;25.67;;;17.45;;
40945;SDS011;55635;50.264;11.918;2023-03-01T13:49:03;24.65;;;16.02;;
40945;SDS011;55635;50.264;11.918;2023-03-01T13:51:47;26.73;;;16.15;;
40945;SDS011;55635;50.264;11.918;2023-03-01T13:54:31;28.30;;;17.25;;
40945;SDS011;55635;50.264;11.918;2023-03-01T13:57:18;25.77;;;16.73;;
40945;SDS011;55635;50.264;11.918;2023-03-01T14:00:05;25.67;;;16.90;;
40945;SDS011;55635;50.264;11.918;2023-03-01T14:02:58;28.50;;;17.85;;
40945;SDS011;55635;50.264;11.918;2023-03-01T14:08:49;28.92;;;18.58;;
40945;SDS011;55635;50.264;11.918;2023-03-01T14:11:50;29.25;;;18.48;;
40945;SDS011;55635;50.264;11.918;2023-03-01T14:15:15;29.27;;;18.25;;
40945;SDS011;55635;50.264;11.918;2023-03-01T14:18:13;28.33;;;18.38;;
40945;SDS011;55635;50.264;11.918;2023-03-01T14:21:12;31.80;;;20.02;;
40945;SDS011;55635;50.264;11.918;2023-03-01T14:23:56;30.08;;;18.70;;
40945;SDS011;55635;50.264;11.918;2023-03-01T14:26:39;32.70;;;18.75;;
40945;SDS011;55635;50.264;11.918;2023-03-01T14:29:27;28.00;;;18.30;;
40945;SDS011;55635;50.264;11.918;2023-03-01T14:32:22;31.25;;;18.63;;
40945;SDS011;55635;50.264;11.918;2023-03-01T14:35:22;29.15;;;19.00;;
40945;SDS011;55635;50.264;11.918;2023-03-01T14:38:20;30.17;;;19.50;;
40945;SDS011;55635;50.264;11.918;2023-03-01T14:41:20;27.10;;;17.95;;
40945;SDS011;55635;50.264;11.918;2023-03-01T14:44:11;29.52;;;18.30;;
40945;SDS011;55635;50.264;11.918;2023-03-01T14:47:03;32.08;;;19.13;;
40945;SDS011;55635;50.264;11.918;2023-03-01T14:49:44;30.02;;;19.17;;
40945;SDS011;55635;50.264;11.918;2023-03-01T14:52:31;26.15;;;17.48;;
40945;SDS011;55635;50.264;11.918;2023-03-01T14:55:26;35.17;;;18.15;;
40945;SDS011;55635;50.264;11.918;2023-03-01T14:58:13;31.15;;;18.25;;
40945;SDS011;55635;50.264;11.918;2023-03-01T15:01:00;30.05;;;18.23;;
40945;SDS011;55635;50.264;11.918;2023-03-01T15:03:45;29.17;;;17.98;;
40945;SDS011;55635;50.264;11.918;2023-03-01T15:06:28;29.65;;;17.60;;
40945;SDS011;55635;50.264;11.918;2023-03-01T15:09:16;29.05;;;17.65;;
40945;SDS011;55635;50.264;11.918;2023-03-01T15:11:57;30.77;;;17.85;;
40945;SDS011;55635;50.264;11.918;2023-03-01T15:14:40;31.63;;;19.00;;
40945;SDS011;55635;50.264;11.918;2023-03-01T15:20:18;28.52;;;17.60;;
40945;SDS011;55635;50.264;11.918;2023-03-01T15:23:05;31.08;;;17.73;;
40945;SDS011;55635;50.264;11.918;2023-03-01T15:25:57;31.23;;;18.95;;
40945;SDS011;55635;50.264;11.918;2023-03-01T15:28:40;34.50;;;18.13;;
40945;SDS011;55635;50.264;11.918;2023-03-01T15:31:36;29.42;;;18.05;;
40945;SDS011;55635;50.264;11.918;2023-03-01T15:37:59;31.75;;;18.90;;
40945;SDS011;55635;50.264;11.918;2023-03-01T15:40:33;33.17;;;18.08;;
40945;SDS011;55635;50.264;11.918;2023-03-01T15:43:36;40.97;;;21.02;;
40945;SDS011;55635;50.264;11.918;2023-03-01T15:46:32;33.08;;;17.65;;
40945;SDS011;55635;50.264;11.918;2023-03-01T15:49:39;34.40;;;18.80;;
40945;SDS011;55635;50.264;11.918;2023-03-01T15:52:32;31.08;;;18.77;;
40945;SDS011;55635;50.264;11.918;2023-03-01T15:55:20;31.63;;;18.15;;
40945;SDS011;55635;50.264;11.918;2023-03-01T15:58:12;34.13;;;17.73;;
40945;SDS011;55635;50.264;11.918;2023-03-01T16:00:58;31.35;;;18.13;;
40945;SDS011;55635;50.264;11.918;2023-03-01T16:03:39;28.20;;;17.27;;
40945;SDS011;55635;50.264;11.918;2023-03-01T16:06:21;42.83;;;17.67;;
40945;SDS011;55635;50.264;11.918;2023-03-01T16:09:02;33.28;;;18.13;;
40945;SDS011;55635;50.264;11.918;2023-03-01T16:11:43;33.13;;;18.75;;
40945;SDS011;55635;50.264;11.918;2023-03-01T16:14:24;30.90;;;17.38;;
40945;SDS011;55635;50.264;11.918;2023-03-01T16:17:05;31.08;;;18.58;;
40945;SDS011;55635;50.264;11.918;2023-03-01T16:19:48;36.97;;;19.73;;
40945;SDS011;55635;50.264;11.918;2023-03-01T16:22:29;30.25;;;20.08;;
40945;SDS011;55635;50.264;11.918;2023-03-01T16:25:11;31.23;;;18.05;;
40945;SDS011;55635;50.264;11.918;2023-03-01T16:27:55;32.13;;;18.40;;
40945;SDS011;55635;50.264;11.918;2023-03-01T16:30:38;33.08;;;18.60;;
40945;SDS011;55635;50.264;11.918;2023-03-01T16:33:19;31.23;;;18.70;;
40945;SDS011;55635;50.264;11.918;2023-03-01T16:36:06;33.95;;;18.98;;
40945;SDS011;55635;50.264;11.918;2023-03-01T16:38:52;33.10;;;19.33;;
40945;SDS011;55635;50.264;11.918;2023-03-01T16:41:33;36.05;;;18.95;;
40945;SDS011;55635;50.264;11.918;2023-03-01T16:44:14;31.92;;;18.80;;
40945;SDS011;55635;50.264;11.918;2023-03-01T16:46:56;33.55;;;19.25;;
40945;SDS011;55635;50.264;11.918;2023-03-01T16:49:37;41.38;;;20.48;;
40945;SDS011;55635;50.264;11.918;2023-03-01T16:52:18;41.75;;;21.15;;
40945;SDS011;55635;50.264;11.918;2023-03-01T16:55:00;36.75;;;20.48;;
40945;SDS011;55635;50.264;11.918;2023-03-01T16:57:44;36.95;;;19.48;;
40945;SDS011;55635;50.264;11.918;2023-03-01T17:00:25;36.85;;;19.73;;
40945;SDS011;55635;50.264;11.918;2023-03-01T17:03:06;37.70;;;21.08;;
40945;SDS011;55635;50.264;11.918;2023-03-01T17:05:48;40.10;;;20.63;;
40945;SDS011;55635;50.264;11.918;2023-03-01T17:08:29;43.67;;;23.17;;
40945;SDS011;55635;50.264;11.918;2023-03-01T17:11:14;42.85;;;22.98;;
40945;SDS011;55635;50.264;11.918;2023-03-01T17:13:57;37.88;;;21.55;;
40945;SDS011;55635;50.264;11.918;2023-03-01T17:16:38;40.22;;;21.60;;
40945;SDS011;55635;50.264;11.918;2023-03-01T17:19:20;40.38;;;22.23;;
40945;SDS011;55635;50.264;11.918;2023-03-01T17:22:01;39.30;;;22.48;;
40945;SDS011;55635;50.264;11.918;2023-03-01T17:24:43;42.08;;;22.25;;
40945;SDS011;55635;50.264;11.918;2023-03-01T17:27:24;43.22;;;23.40;;
40945;SDS011;55635;50.264;11.918;2023-03-01T17:30:06;41.47;;;21.88;;
40945;SDS011;55635;50.264;11.918;2023-03-01T17:32:53;54.83;;;26.45;;
40945;SDS011;55635;50.264;11.918;2023-03-01T17:35:35;44.65;;;23.73;;
40945;SDS011;55635;50.264;11.918;2023-03-01T17:38:17;53.55;;;26.25;;
40945;SDS011;55635;50.264;11.918;2023-03-01T17:40:58;47.33;;;23.60;;
40945;SDS011;55635;50.264;11.918;2023-03-01T17:43:40;44.78;;;23.17;;
40945;SDS011;55635;50.264;11.918;2023-03-01T17:46:21;55.80;;;27.67;;